sensor_id;sensor_type;location;lat;lon;timestamp;temperature;humidity
52709;DHT22;38606;52.986;6.980;2023-02-03T00:01:28;8.30;99.90
52709;DHT22;38606;52.986;6.980;2023-02-03T00:03:54;8.40;99.90
52709;DHT22;38606;52.986;6.980;2023-02-03T00:06:19;8.30;99.90
52709;DHT22;38606;52.986;6.980;2023-02-03T00:08:46;8.30;99.90
52709;DHT22;38606;52.986;6.980;2023-02-03T00:11:12;8.40;99.90
52709;DHT22;38606;52.986;6.980;2023-02-03T00:13:38;8.50;99.90
52709;DHT22;38606;52.986;6.980;2023-02-03T00:16:04;8.10;99.90
52709;DHT22;38606;52.986;6.980;2023-02-03T00:18:32;8.30;99.90
52709;DHT22;38606;52.986;6.980;2023-02-03T00:20:57;8.40;99.90
52709;DHT22;38606;52.986;6.980;2023-02-03T00:23:23;8.20;99.90
52709;DHT22;38606;52.986;6.980;2023-02-03T00:25:50;8.40;99.90
52709;DHT22;38606;52.986;6.980;2023-02-03T00:28:16;8.30;99.90
52709;DHT22;38606;52.986;6.980;2023-02-03T00:30:42;9.20;99.90
52709;DHT22;38606;52.986;6.980;2023-02-03T00:33:08;8.40;99.90
52709;DHT22;38606;52.986;6.980;2023-02-03T00:35:37;8.50;99.90
52709;DHT22;38606;52.986;6.980;2023-02-03T00:38:04;8.20;99.90
52709;DHT22;38606;52.986;6.980;2023-02-03T00:40:29;8.80;99.90
52709;DHT22;38606;52.986;6.980;2023-02-03T00:42:55;8.50;99.90
52709;DHT22;38606;52.986;6.980;2023-02-03T00:45:21;8.40;99.90
52709;DHT22;38606;52.986;6.980;2023-02-03T00:47:47;8.40;99.90
52709;DHT22;38606;52.986;6.980;2023-02-03T00:50:13;8.20;99.90
52709;DHT22;38606;52.986;6.980;2023-02-03T00:52:39;8.80;99.90
52709;DHT22;38606;52.986;6.980;2023-02-03T00:55:05;8.20;99.90
52709;DHT22;38606;52.986;6.980;2023-02-03T00:57:31;8.30;99.90
52709;DHT22;38606;52.986;6.980;2023-02-03T00:59:57;8.70;99.90
52709;DHT22;38606;52.986;6.980;2023-02-03T01:02:23;8.50;99.90
52709;DHT22;38606;52.986;6.980;2023-02-03T01:04:49;8.60;99.90
52709;DHT22;38606;52.986;6.980;2023-02-03T01:07:15;8.70;99.90
52709;DHT22;38606;52.986;6.980;2023-02-03T01:09:40;8.30;99.90
52709;DHT22;38606;52.986;6.980;2023-02-03T01:12:06;8.60;99.90
52709;DHT22;38606;52.986;6.980;2023-02-03T01:14:35;8.30;99.90
52709;DHT22;38606;52.986;6.980;2023-02-03T01:17:01;8.60;99.90
52709;DHT22;38606;52.986;6.980;2023-02-03T01:19:26;8.30;99.90
52709;DHT22;38606;52.986;6.980;2023-02-03T01:21:52;8.50;99.90
52709;DHT22;38606;52.986;6.980;2023-02-03T01:24:18;8.30;99.90
52709;DHT22;38606;52.986;6.980;2023-02-03T01:26:44;8.40;99.90
52709;DHT22;38606;52.986;6.980;2023-02-03T01:29:10;8.50;99.90
52709;DHT22;38606;52.986;6.980;2023-02-03T01:31:38;9.60;99.90
52709;DHT22;38606;52.986;6.980;2023-02-03T01:34:05;8.30;99.90
52709;DHT22;38606;52.986;6.980;2023-02-03T01:36:33;8.60;99.90
52709;DHT22;38606;52.986;6.980;2023-02-03T01:38:59;9.20;99.90
52709;DHT22;38606;52.986;6.980;2023-02-03T01:41:27;8.50;99.90
52709;DHT22;38606;52.986;6.980;2023-02-03T01:43:55;8.50;99.90
52709;DHT22;38606;52.986;6.980;2023-02-03T01:46:43;9.60;99.90
52709;DHT22;38606;52.986;6.980;2023-02-03T01:49:15;8.60;99.90
52709;DHT22;38606;52.986;6.980;2023-02-03T01:51:44;8.60;99.90
52709;DHT22;38606;52.986;6.980;2023-02-03T01:54:14;8.50;99.90
52709;DHT22;38606;52.986;6.980;2023-02-03T01:56:47;9.50;99.90
52709;DHT22;38606;52.986;6.980;2023-02-03T01:59:17;8.30;99.90
52709;DHT22;38606;52.986;6.980;2023-02-03T02:01:44;8.50;99.90
52709;DHT22;38606;52.986;6.980;2023-02-03T02:04:11;8.50;99.90
52709;DHT22;38606;52.986;6.980;2023-02-03T02:06:36;8.40;99.90
52709;DHT22;38606;52.986;6.980;2023-02-03T02:09:03;8.60;99.90
52709;DHT22;38606;52.986;6.980;2023-02-03T02:11:29;8.50;99.90
52709;DHT22;38606;52.986;6.980;2023-02-03T02:13:58;8.60;99.90
52709;DHT22;38606;52.986;6.980;2023-02-03T02:16:52;8.50;99.90
52709;DHT22;38606;52.986;6.980;2023-02-03T02:22:20;8.60;99.90
52709;DHT22;38606;52.986;6.980;2023-02-03T02:28:09;8.60;99.90
52709;DHT22;38606;52.986;6.980;2023-02-03T02:36:17;9.20;99.90
52709;DHT22;38606;52.986;6.980;2023-02-03T02:44:44;8.60;99.90
52709;DHT22;38606;52.986;6.980;2023-02-03T02:47:21;8.70;99.90
52709;DHT22;38606;52.986;6.980;2023-02-03T02:52:23;8.50;99.90
52709;DHT22;38606;52.986;6.980;2023-02-03T02:54:55;8.40;99.90
52709;DHT22;38606;52.986;6.980;2023-02-03T02:57:25;8.60;99.90
52709;DHT22;38606;52.986;6.980;2023-02-03T02:59:52;8.90;99.90
52709;DHT22;38606;52.986;6.980;2023-02-03T03:02:19;8.80;99.90
52709;DHT22;38606;52.986;6.980;2023-02-03T03:04:45;8.50;99.90
52709;DHT22;38606;52.986;6.980;2023-02-03T03:07:17;9.00;99.90
52709;DHT22;38606;52.986;6.980;2023-02-03T03:09:57;8.50;99.90
52709;DHT22;38606;52.986;6.980;2023-02-03T03:12:30;8.60;99.90
52709;DHT22;38606;52.986;6.980;2023-02-03T03:15:04;8.60;99.90
52709;DHT22;38606;52.986;6.980;2023-02-03T03:17:40;8.70;99.90
52709;DHT22;38606;52.986;6.980;2023-02-03T03:20:10;8.60;99.90
52709;DHT22;38606;52.986;6.980;2023-02-03T03:22:43;8.60;99.90
52709;DHT22;38606;52.986;6.980;2023-02-03T03:25:17;8.70;99.90
52709;DHT22;38606;52.986;6.980;2023-02-03T03:27:53;8.50;99.90
52709;DHT22;38606;52.986;6.980;2023-02-03T03:30:35;8.40;99.90
52709;DHT22;38606;52.986;6.980;2023-02-03T03:33:04;8.90;99.90
52709;DHT22;38606;52.986;6.980;2023-02-03T03:38:41;8.80;99.90
52709;DHT22;38606;52.986;6.980;2023-02-03T03:41:17;8.50;99.90
52709;DHT22;38606;52.986;6.980;2023-02-03T03:43:43;8.80;99.90
52709;DHT22;38606;52.986;6.980;2023-02-03T03:46:14;8.70;99.90
52709;DHT22;38606;52.986;6.980;2023-02-03T03:49:02;8.90;99.90
52709;DHT22;38606;52.986;6.980;2023-02-03T03:51:36;8.70;99.90
52709;DHT22;38606;52.986;6.980;2023-02-03T03:54:07;8.70;99.90
52709;DHT22;38606;52.986;6.980;2023-02-03T03:56:52;8.60;99.90
52709;DHT22;38606;52.986;6.980;2023-02-03T03:59:21;8.60;99.90
52709;DHT22;38606;52.986;6.980;2023-02-03T04:01:48;8.90;99.90
52709;DHT22;38606;52.986;6.980;2023-02-03T04:04:15;8.60;99.90
52709;DHT22;38606;52.986;6.980;2023-02-03T04:06:42;8.50;99.90
52709;DHT22;38606;52.986;6.980;2023-02-03T04:09:08;9.00;99.90
52709;DHT22;38606;52.986;6.980;2023-02-03T04:11:33;8.60;99.90
52709;DHT22;38606;52.986;6.980;2023-02-03T04:14:26;8.60;99.90
52709;DHT22;38606;52.986;6.980;2023-02-03T04:16:52;8.60;99.90
52709;DHT22;38606;52.986;6.980;2023-02-03T04:19:17;8.90;99.90
52709;DHT22;38606;52.986;6.980;2023-02-03T04:21:43;8.90;99.90
52709;DHT22;38606;52.986;6.980;2023-02-03T04:24:09;8.60;99.90
52709;DHT22;38606;52.986;6.980;2023-02-03T04:26:36;8.70;99.90
52709;DHT22;38606;52.986;6.980;2023-02-03T04:29:02;8.60;99.90
52709;DHT22;38606;52.986;6.980;2023-02-03T04:31:28;8.70;99.90
52709;DHT22;38606;52.986;6.980;2023-02-03T04:33:54;8.70;99.90
52709;DHT22;38606;52.986;6.980;2023-02-03T04:36:19;8.70;99.90
52709;DHT22;38606;52.986;6.980;2023-02-03T04:38:46;8.60;99.90
52709;DHT22;38606;52.986;6.980;2023-02-03T04:41:12;6.70;99.90
52709;DHT22;38606;52.986;6.980;2023-02-03T04:43:38;8.70;99.90
52709;DHT22;38606;52.986;6.980;2023-02-03T04:46:04;8.70;99.90
52709;DHT22;38606;52.986;6.980;2023-02-03T04:48:29;9.20;99.90
52709;DHT22;38606;52.986;6.980;2023-02-03T04:51:00;8.60;99.90
52709;DHT22;38606;52.986;6.980;2023-02-03T04:53:26;9.30;99.90
52709;DHT22;38606;52.986;6.980;2023-02-03T04:55:52;8.50;99.90
52709;DHT22;38606;52.986;6.980;2023-02-03T04:58:17;8.70;99.90
52709;DHT22;38606;52.986;6.980;2023-02-03T05:00:43;9.70;99.90
52709;DHT22;38606;52.986;6.980;2023-02-03T05:03:09;9.00;99.90
52709;DHT22;38606;52.986;6.980;2023-02-03T05:05:34;9.50;99.90
52709;DHT22;38606;52.986;6.980;2023-02-03T05:08:00;8.70;99.90
52709;DHT22;38606;52.986;6.980;2023-02-03T05:10:26;8.70;99.90
52709;DHT22;38606;52.986;6.980;2023-02-03T05:12:51;8.80;99.90
52709;DHT22;38606;52.986;6.980;2023-02-03T05:15:17;8.60;99.90
52709;DHT22;38606;52.986;6.980;2023-02-03T05:17:43;8.80;99.90
52709;DHT22;38606;52.986;6.980;2023-02-03T05:20:09;8.80;99.90
52709;DHT22;38606;52.986;6.980;2023-02-03T05:22:35;8.60;99.90
52709;DHT22;38606;52.986;6.980;2023-02-03T05:25:02;8.60;99.90
52709;DHT22;38606;52.986;6.980;2023-02-03T05:27:27;9.30;99.90
52709;DHT22;38606;52.986;6.980;2023-02-03T05:29:53;9.00;99.90
52709;DHT22;38606;52.986;6.980;2023-02-03T05:32:19;8.50;99.90
52709;DHT22;38606;52.986;6.980;2023-02-03T05:34:45;8.70;99.90
52709;DHT22;38606;52.986;6.980;2023-02-03T05:37:10;8.90;99.90
52709;DHT22;38606;52.986;6.980;2023-02-03T05:39:36;8.80;99.90
52709;DHT22;38606;52.986;6.980;2023-02-03T05:42:02;6.50;99.90
52709;DHT22;38606;52.986;6.980;2023-02-03T05:44:29;8.50;99.90
52709;DHT22;38606;52.986;6.980;2023-02-03T05:46:56;8.80;99.90
52709;DHT22;38606;52.986;6.980;2023-02-03T05:49:22;9.20;99.90
52709;DHT22;38606;52.986;6.980;2023-02-03T05:51:50;10.10;99.90
52709;DHT22;38606;52.986;6.980;2023-02-03T05:54:15;8.80;99.90
52709;DHT22;38606;52.986;6.980;2023-02-03T05:56:41;8.80;99.90
52709;DHT22;38606;52.986;6.980;2023-02-03T05:59:07;8.70;99.90
52709;DHT22;38606;52.986;6.980;2023-02-03T06:01:33;8.80;99.90
52709;DHT22;38606;52.986;6.980;2023-02-03T06:04:00;8.90;99.90
52709;DHT22;38606;52.986;6.980;2023-02-03T06:06:26;9.00;99.90
52709;DHT22;38606;52.986;6.980;2023-02-03T06:09:05;8.70;99.90
52709;DHT22;38606;52.986;6.980;2023-02-03T06:11:32;8.70;99.90
52709;DHT22;38606;52.986;6.980;2023-02-03T06:13:59;9.00;99.90
52709;DHT22;38606;52.986;6.980;2023-02-03T06:16:26;9.00;99.90
52709;DHT22;38606;52.986;6.980;2023-02-03T06:18:52;9.00;99.90
52709;DHT22;38606;52.986;6.980;2023-02-03T06:21:19;8.80;99.90
52709;DHT22;38606;52.986;6.980;2023-02-03T06:23:45;9.00;99.90
52709;DHT22;38606;52.986;6.980;2023-02-03T06:26:11;8.90;99.90
52709;DHT22;38606;52.986;6.980;2023-02-03T06:28:36;8.90;99.90
52709;DHT22;38606;52.986;6.980;2023-02-03T06:31:03;9.20;99.90
52709;DHT22;38606;52.986;6.980;2023-02-03T06:33:29;9.00;99.90
52709;DHT22;38606;52.986;6.980;2023-02-03T06:35:55;9.90;99.90
52709;DHT22;38606;52.986;6.980;2023-02-03T06:38:21;8.90;99.90
52709;DHT22;38606;52.986;6.980;2023-02-03T06:40:47;9.00;99.90
52709;DHT22;38606;52.986;6.980;2023-02-03T06:43:13;9.00;99.90
52709;DHT22;38606;52.986;6.980;2023-02-03T06:45:38;9.10;99.90
52709;DHT22;38606;52.986;6.980;2023-02-03T06:48:04;9.10;99.90
52709;DHT22;38606;52.986;6.980;2023-02-03T06:50:30;9.00;99.90
52709;DHT22;38606;52.986;6.980;2023-02-03T06:52:56;9.10;99.90
52709;DHT22;38606;52.986;6.980;2023-02-03T06:55:22;9.20;99.90
52709;DHT22;38606;52.986;6.980;2023-02-03T06:57:47;9.50;99.90
52709;DHT22;38606;52.986;6.980;2023-02-03T07:00:15;9.20;99.90
52709;DHT22;38606;52.986;6.980;2023-02-03T07:02:42;9.00;99.90
52709;DHT22;38606;52.986;6.980;2023-02-03T07:05:08;9.30;99.90
52709;DHT22;38606;52.986;6.980;2023-02-03T07:07:34;9.20;99.90
52709;DHT22;38606;52.986;6.980;2023-02-03T07:10:01;9.30;99.90
52709;DHT22;38606;52.986;6.980;2023-02-03T07:12:26;9.10;99.90
52709;DHT22;38606;52.986;6.980;2023-02-03T07:14:52;9.30;99.90
52709;DHT22;38606;52.986;6.980;2023-02-03T07:17:18;9.40;99.90
52709;DHT22;38606;52.986;6.980;2023-02-03T07:19:44;9.30;99.90
52709;DHT22;38606;52.986;6.980;2023-02-03T07:22:10;9.60;99.90
52709;DHT22;38606;52.986;6.980;2023-02-03T07:24:36;9.10;99.90
52709;DHT22;38606;52.986;6.980;2023-02-03T07:27:02;9.20;99.90
52709;DHT22;38606;52.986;6.980;2023-02-03T07:29:27;9.00;99.90
52709;DHT22;38606;52.986;6.980;2023-02-03T07:31:53;9.10;99.90
52709;DHT22;38606;52.986;6.980;2023-02-03T07:34:19;9.30;99.90
52709;DHT22;38606;52.986;6.980;2023-02-03T07:36:44;9.10;99.90
52709;DHT22;38606;52.986;6.980;2023-02-03T07:39:10;9.10;99.90
52709;DHT22;38606;52.986;6.980;2023-02-03T07:41:36;9.20;99.90
52709;DHT22;38606;52.986;6.980;2023-02-03T07:44:02;9.20;99.90
52709;DHT22;38606;52.986;6.980;2023-02-03T07:46:28;9.30;99.90
52709;DHT22;38606;52.986;6.980;2023-02-03T07:48:53;9.30;99.90
52709;DHT22;38606;52.986;6.980;2023-02-03T07:51:19;8.90;99.90
52709;DHT22;38606;52.986;6.980;2023-02-03T07:53:45;9.10;99.90
52709;DHT22;38606;52.986;6.980;2023-02-03T07:56:11;9.00;99.90
52709;DHT22;38606;52.986;6.980;2023-02-03T07:58:37;9.10;99.90
52709;DHT22;38606;52.986;6.980;2023-02-03T08:01:10;9.10;99.90
52709;DHT22;38606;52.986;6.980;2023-02-03T08:03:36;8.90;99.90
52709;DHT22;38606;52.986;6.980;2023-02-03T08:06:02;8.90;99.90
52709;DHT22;38606;52.986;6.980;2023-02-03T08:08:28;8.90;99.90
52709;DHT22;38606;52.986;6.980;2023-02-03T08:10:54;8.70;99.90
52709;DHT22;38606;52.986;6.980;2023-02-03T08:13:21;8.50;99.90
52709;DHT22;38606;52.986;6.980;2023-02-03T08:15:47;8.80;99.90
52709;DHT22;38606;52.986;6.980;2023-02-03T08:18:13;8.70;99.90
52709;DHT22;38606;52.986;6.980;2023-02-03T08:20:39;9.60;99.90
52709;DHT22;38606;52.986;6.980;2023-02-03T08:23:04;8.50;99.90
52709;DHT22;38606;52.986;6.980;2023-02-03T08:25:30;8.70;99.90
52709;DHT22;38606;52.986;6.980;2023-02-03T08:27:56;8.70;99.90
52709;DHT22;38606;52.986;6.980;2023-02-03T08:30:23;8.50;99.90
52709;DHT22;38606;52.986;6.980;2023-02-03T08:32:49;8.70;99.90
52709;DHT22;38606;52.986;6.980;2023-02-03T08:35:15;8.80;99.90
52709;DHT22;38606;52.986;6.980;2023-02-03T08:37:41;8.60;99.90
52709;DHT22;38606;52.986;6.980;2023-02-03T08:40:07;8.70;99.90
52709;DHT22;38606;52.986;6.980;2023-02-03T08:42:33;8.60;99.90
52709;DHT22;38606;52.986;6.980;2023-02-03T08:44:59;9.60;99.90
52709;DHT22;38606;52.986;6.980;2023-02-03T08:47:25;8.80;99.90
52709;DHT22;38606;52.986;6.980;2023-02-03T08:49:51;8.80;99.90
52709;DHT22;38606;52.986;6.980;2023-02-03T08:52:16;8.80;99.90
52709;DHT22;38606;52.986;6.980;2023-02-03T08:54:42;8.90;99.90
52709;DHT22;38606;52.986;6.980;2023-02-03T08:57:08;8.80;99.90
52709;DHT22;38606;52.986;6.980;2023-02-03T08:59:36;9.90;99.90
52709;DHT22;38606;52.986;6.980;2023-02-03T09:02:03;8.80;99.90
52709;DHT22;38606;52.986;6.980;2023-02-03T09:04:29;8.90;99.90
52709;DHT22;38606;52.986;6.980;2023-02-03T09:06:58;8.70;99.90
52709;DHT22;38606;52.986;6.980;2023-02-03T09:09:24;8.90;99.90
52709;DHT22;38606;52.986;6.980;2023-02-03T09:11:51;8.70;99.90
52709;DHT22;38606;52.986;6.980;2023-02-03T09:14:17;9.10;99.90
52709;DHT22;38606;52.986;6.980;2023-02-03T09:16:43;8.70;99.90
52709;DHT22;38606;52.986;6.980;2023-02-03T09:19:09;8.90;99.90
52709;DHT22;38606;52.986;6.980;2023-02-03T09:21:35;9.10;99.90
52709;DHT22;38606;52.986;6.980;2023-02-03T09:24:01;8.80;99.90
52709;DHT22;38606;52.986;6.980;2023-02-03T09:26:27;9.20;99.90
52709;DHT22;38606;52.986;6.980;2023-02-03T09:28:53;8.90;99.90
52709;DHT22;38606;52.986;6.980;2023-02-03T09:31:19;8.90;99.90
52709;DHT22;38606;52.986;6.980;2023-02-03T09:33:45;8.90;99.90
52709;DHT22;38606;52.986;6.980;2023-02-03T09:36:12;9.10;99.90
52709;DHT22;38606;52.986;6.980;2023-02-03T09:38:38;9.00;99.90
52709;DHT22;38606;52.986;6.980;2023-02-03T09:44:07;9.00;99.90
52709;DHT22;38606;52.986;6.980;2023-02-03T09:46:40;9.40;99.90
52709;DHT22;38606;52.986;6.980;2023-02-03T09:49:12;9.00;99.90
52709;DHT22;38606;52.986;6.980;2023-02-03T09:51:49;9.20;99.90
52709;DHT22;38606;52.986;6.980;2023-02-03T09:54:22;9.20;99.90
52709;DHT22;38606;52.986;6.980;2023-02-03T09:56:50;9.50;99.90
52709;DHT22;38606;52.986;6.980;2023-02-03T09:59:20;9.40;99.90
52709;DHT22;38606;52.986;6.980;2023-02-03T10:02:22;9.30;99.90
52709;DHT22;38606;52.986;6.980;2023-02-03T10:04:57;9.30;99.90
52709;DHT22;38606;52.986;6.980;2023-02-03T10:13:12;9.70;99.90
52709;DHT22;38606;52.986;6.980;2023-02-03T10:15:47;8.70;99.90
52709;DHT22;38606;52.986;6.980;2023-02-03T10:18:30;9.60;99.90
52709;DHT22;38606;52.986;6.980;2023-02-03T10:20:59;9.50;99.90
52709;DHT22;38606;52.986;6.980;2023-02-03T10:23:33;9.50;99.90
52709;DHT22;38606;52.986;6.980;2023-02-03T10:26:13;9.60;99.90
52709;DHT22;38606;52.986;6.980;2023-02-03T10:28:47;9.80;99.90
52709;DHT22;38606;52.986;6.980;2023-02-03T10:31:24;9.80;99.90
52709;DHT22;38606;52.986;6.980;2023-02-03T10:33:59;9.70;99.90
52709;DHT22;38606;52.986;6.980;2023-02-03T10:39:38;9.60;99.90
52709;DHT22;38606;52.986;6.980;2023-02-03T10:42:06;9.70;99.90
52709;DHT22;38606;52.986;6.980;2023-02-03T10:47:35;9.70;99.90
52709;DHT22;38606;52.986;6.980;2023-02-03T10:50:15;9.60;99.90
52709;DHT22;38606;52.986;6.980;2023-02-03T10:52:41;9.60;99.90
52709;DHT22;38606;52.986;6.980;2023-02-03T10:57:52;9.80;99.90
52709;DHT22;38606;52.986;6.980;2023-02-03T11:03:05;9.70;99.90
52709;DHT22;38606;52.986;6.980;2023-02-03T11:05:32;9.70;99.90
52709;DHT22;38606;52.986;6.980;2023-02-03T11:07:58;9.80;99.90
52709;DHT22;38606;52.986;6.980;2023-02-03T11:16:16;9.70;99.90
52709;DHT22;38606;52.986;6.980;2023-02-03T11:21:30;11.20;99.90
52709;DHT22;38606;52.986;6.980;2023-02-03T11:26:39;9.80;99.90
52709;DHT22;38606;52.986;6.980;2023-02-03T11:29:12;11.20;99.90
52709;DHT22;38606;52.986;6.980;2023-02-03T11:31:39;10.00;99.90
52709;DHT22;38606;52.986;6.980;2023-02-03T11:34:20;9.90;99.90
52709;DHT22;38606;52.986;6.980;2023-02-03T11:36:49;10.00;99.90
52709;DHT22;38606;52.986;6.980;2023-02-03T11:39:26;9.70;99.90
52709;DHT22;38606;52.986;6.980;2023-02-03T11:41:53;9.70;99.90
52709;DHT22;38606;52.986;6.980;2023-02-03T11:44:27;9.80;99.90
52709;DHT22;38606;52.986;6.980;2023-02-03T11:47:02;9.80;99.90
52709;DHT22;38606;52.986;6.980;2023-02-03T11:49:42;9.90;99.90
52709;DHT22;38606;52.986;6.980;2023-02-03T11:55:11;9.80;99.90
52709;DHT22;38606;52.986;6.980;2023-02-03T12:00:52;9.60;99.90
52709;DHT22;38606;52.986;6.980;2023-02-03T12:06:17;10.40;99.90
52709;DHT22;38606;52.986;6.980;2023-02-03T12:11:43;9.70;99.90
52709;DHT22;38606;52.986;6.980;2023-02-03T12:17:03;11.70;99.90
52709;DHT22;38606;52.986;6.980;2023-02-03T12:25:48;9.60;99.90
52709;DHT22;38606;52.986;6.980;2023-02-03T12:37:05;9.60;99.90
52709;DHT22;38606;52.986;6.980;2023-02-03T12:39:38;9.90;99.90
52709;DHT22;38606;52.986;6.980;2023-02-03T12:42:25;9.80;99.90
52709;DHT22;38606;52.986;6.980;2023-02-03T12:47:38;10.00;99.90
52709;DHT22;38606;52.986;6.980;2023-02-03T12:50:30;9.90;99.90
52709;DHT22;38606;52.986;6.980;2023-02-03T12:53:00;9.70;99.90
52709;DHT22;38606;52.986;6.980;2023-02-03T12:55:38;9.60;99.90
52709;DHT22;38606;52.986;6.980;2023-02-03T12:58:28;9.60;99.90
52709;DHT22;38606;52.986;6.980;2023-02-03T13:01:05;9.50;99.90
52709;DHT22;38606;52.986;6.980;2023-02-03T13:03:44;9.50;99.90
52709;DHT22;38606;52.986;6.980;2023-02-03T13:08:52;9.60;99.90
52709;DHT22;38606;52.986;6.980;2023-02-03T13:13:52;10.00;99.90
52709;DHT22;38606;52.986;6.980;2023-02-03T13:16:24;7.40;99.90
52709;DHT22;38606;52.986;6.980;2023-02-03T13:18:58;9.20;99.90
52709;DHT22;38606;52.986;6.980;2023-02-03T13:21:26;9.20;99.90
52709;DHT22;38606;52.986;6.980;2023-02-03T13:23:52;9.50;99.90
52709;DHT22;38606;52.986;6.980;2023-02-03T13:34:39;9.30;99.90
52709;DHT22;38606;52.986;6.980;2023-02-03T13:37:22;9.20;99.90
52709;DHT22;38606;52.986;6.980;2023-02-03T13:42:53;9.40;99.90
52709;DHT22;38606;52.986;6.980;2023-02-03T13:45:41;10.00;99.90
52709;DHT22;38606;52.986;6.980;2023-02-03T13:48:13;9.40;99.90
52709;DHT22;38606;52.986;6.980;2023-02-03T13:50:40;9.40;99.90
52709;DHT22;38606;52.986;6.980;2023-02-03T13:53:27;9.40;99.90
52709;DHT22;38606;52.986;6.980;2023-02-03T13:58:25;9.70;99.90
52709;DHT22;38606;52.986;6.980;2023-02-03T14:05:51;9.70;99.90
52709;DHT22;38606;52.986;6.980;2023-02-03T14:16:39;9.40;99.90
52709;DHT22;38606;52.986;6.980;2023-02-03T14:19:25;9.20;99.90
52709;DHT22;38606;52.986;6.980;2023-02-03T14:22:08;9.20;99.90
52709;DHT22;38606;52.986;6.980;2023-02-03T14:24:44;8.90;99.90
52709;DHT22;38606;52.986;6.980;2023-02-03T14:27:31;9.10;99.90
52709;DHT22;38606;52.986;6.980;2023-02-03T14:30:10;8.80;99.90
52709;DHT22;38606;52.986;6.980;2023-02-03T14:32:49;8.80;99.90
52709;DHT22;38606;52.986;6.980;2023-02-03T14:35:38;9.00;99.90
52709;DHT22;38606;52.986;6.980;2023-02-03T14:38:13;8.80;99.90
52709;DHT22;38606;52.986;6.980;2023-02-03T14:41:04;9.00;99.90
52709;DHT22;38606;52.986;6.980;2023-02-03T15:05:43;8.40;99.90
52709;DHT22;38606;52.986;6.980;2023-02-03T15:08:36;8.50;99.90
52709;DHT22;38606;52.986;6.980;2023-02-03T15:11:41;8.50;99.90
52709;DHT22;38606;52.986;6.980;2023-02-03T15:14:37;8.40;99.90
52709;DHT22;38606;52.986;6.980;2023-02-03T15:17:12;8.40;99.90
52709;DHT22;38606;52.986;6.980;2023-02-03T15:19:41;8.20;99.90
52709;DHT22;38606;52.986;6.980;2023-02-03T15:24:48;8.30;99.90
52709;DHT22;38606;52.986;6.980;2023-02-03T15:27:26;8.20;99.90
52709;DHT22;38606;52.986;6.980;2023-02-03T15:29:53;8.60;99.90
52709;DHT22;38606;52.986;6.980;2023-02-03T15:32:29;8.10;99.90
52709;DHT22;38606;52.986;6.980;2023-02-03T15:34:58;8.70;99.90
52709;DHT22;38606;52.986;6.980;2023-02-03T15:37:32;8.00;99.90
52709;DHT22;38606;52.986;6.980;2023-02-03T15:40:12;8.00;99.90
52709;DHT22;38606;52.986;6.980;2023-02-03T15:48:56;8.10;99.90
52709;DHT22;38606;52.986;6.980;2023-02-03T15:51:36;6.30;99.90
52709;DHT22;38606;52.986;6.980;2023-02-03T15:54:16;7.90;99.90
52709;DHT22;38606;52.986;6.980;2023-02-03T15:56:48;8.10;99.90
52709;DHT22;38606;52.986;6.980;2023-02-03T15:59:44;7.80;99.90
52709;DHT22;38606;52.986;6.980;2023-02-03T16:02:30;7.90;99.90
52709;DHT22;38606;52.986;6.980;2023-02-03T16:05:12;7.80;99.90
52709;DHT22;38606;52.986;6.980;2023-02-03T16:07:46;8.80;99.90
52709;DHT22;38606;52.986;6.980;2023-02-03T16:10:32;7.70;99.90
52709;DHT22;38606;52.986;6.980;2023-02-03T16:13:22;7.90;99.90
52709;DHT22;38606;52.986;6.980;2023-02-03T16:16:04;7.90;99.90
52709;DHT22;38606;52.986;6.980;2023-02-03T16:18:34;7.80;99.90
52709;DHT22;38606;52.986;6.980;2023-02-03T16:21:04;7.60;99.90
52709;DHT22;38606;52.986;6.980;2023-02-03T16:23:30;7.80;99.90
52709;DHT22;38606;52.986;6.980;2023-02-03T16:28:36;7.60;99.90
52709;DHT22;38606;52.986;6.980;2023-02-03T16:31:25;7.50;99.90
52709;DHT22;38606;52.986;6.980;2023-02-03T16:34:18;8.20;99.90
52709;DHT22;38606;52.986;6.980;2023-02-03T16:37:19;8.40;99.90
52709;DHT22;38606;52.986;6.980;2023-02-03T16:40:06;8.50;99.90
52709;DHT22;38606;52.986;6.980;2023-02-03T16:42:50;7.30;99.90
52709;DHT22;38606;52.986;6.980;2023-02-03T16:45:35;7.40;99.90
52709;DHT22;38606;52.986;6.980;2023-02-03T16:48:19;8.20;99.90
52709;DHT22;38606;52.986;6.980;2023-02-03T16:51:10;7.50;99.90
52709;DHT22;38606;52.986;6.980;2023-02-03T16:53:36;7.90;99.90
52709;DHT22;38606;52.986;6.980;2023-02-03T16:56:03;7.40;99.90
52709;DHT22;38606;52.986;6.980;2023-02-03T16:58:29;7.30;99.90
52709;DHT22;38606;52.986;6.980;2023-02-03T17:00:58;7.60;99.90
52709;DHT22;38606;52.986;6.980;2023-02-03T17:03:26;7.20;99.90
52709;DHT22;38606;52.986;6.980;2023-02-03T17:05:53;8.70;99.90
52709;DHT22;38606;52.986;6.980;2023-02-03T17:08:22;7.50;99.90
52709;DHT22;38606;52.986;6.980;2023-02-03T17:10:48;6.20;99.90
52709;DHT22;38606;52.986;6.980;2023-02-03T17:13:15;8.20;99.90
52709;DHT22;38606;52.986;6.980;2023-02-03T17:15:44;7.20;99.90
52709;DHT22;38606;52.986;6.980;2023-02-03T17:18:10;7.60;99.90
52709;DHT22;38606;52.986;6.980;2023-02-03T17:20:36;7.30;99.90
52709;DHT22;38606;52.986;6.980;2023-02-03T17:23:02;8.50;99.90
52709;DHT22;38606;52.986;6.980;2023-02-03T17:25:28;7.70;99.90
52709;DHT22;38606;52.986;6.980;2023-02-03T17:27:54;7.30;99.90
52709;DHT22;38606;52.986;6.980;2023-02-03T17:30:20;7.20;99.90
52709;DHT22;38606;52.986;6.980;2023-02-03T17:32:45;7.40;99.90
52709;DHT22;38606;52.986;6.980;2023-02-03T17:35:11;8.40;99.90
52709;DHT22;38606;52.986;6.980;2023-02-03T17:37:37;7.50;99.90
52709;DHT22;38606;52.986;6.980;2023-02-03T17:40:03;7.50;99.90
52709;DHT22;38606;52.986;6.980;2023-02-03T17:42:29;7.20;99.90
52709;DHT22;38606;52.986;6.980;2023-02-03T17:44:55;7.50;99.90
52709;DHT22;38606;52.986;6.980;2023-02-03T17:47:20;8.60;99.90
52709;DHT22;38606;52.986;6.980;2023-02-03T17:49:46;7.60;99.90
52709;DHT22;38606;52.986;6.980;2023-02-03T17:52:13;7.60;99.90
52709;DHT22;38606;52.986;6.980;2023-02-03T17:54:39;7.50;99.90
52709;DHT22;38606;52.986;6.980;2023-02-03T17:57:05;8.00;99.90
52709;DHT22;38606;52.986;6.980;2023-02-03T17:59:31;7.30;99.90
52709;DHT22;38606;52.986;6.980;2023-02-03T18:01:59;7.30;99.90
52709;DHT22;38606;52.986;6.980;2023-02-03T18:04:25;7.40;99.90
52709;DHT22;38606;52.986;6.980;2023-02-03T18:06:51;7.30;99.90
52709;DHT22;38606;52.986;6.980;2023-02-03T18:09:19;7.40;99.90
52709;DHT22;38606;52.986;6.980;2023-02-03T18:11:45;7.70;99.90
52709;DHT22;38606;52.986;6.980;2023-02-03T18:14:14;7.40;99.90
52709;DHT22;38606;52.986;6.980;2023-02-03T18:16:41;7.50;99.90
52709;DHT22;38606;52.986;6.980;2023-02-03T18:19:10;7.40;99.90
52709;DHT22;38606;52.986;6.980;2023-02-03T18:21:38;7.30;99.90
52709;DHT22;38606;52.986;6.980;2023-02-03T18:24:12;7.40;99.90
52709;DHT22;38606;52.986;6.980;2023-02-03T18:26:50;7.30;99.90
52709;DHT22;38606;52.986;6.980;2023-02-03T18:29:16;7.70;99.90
52709;DHT22;38606;52.986;6.980;2023-02-03T18:31:42;7.30;99.90
52709;DHT22;38606;52.986;6.980;2023-02-03T18:34:08;7.30;99.90
52709;DHT22;38606;52.986;6.980;2023-02-03T18:36:34;7.80;99.90